RYR67UB EDJA-EGSS
Flight info
| Callsign | RYR67UB |
|---|---|
| Flight time | 1h 21m |
| Altitude | 22000 |
| Route | LUPOL5A LUPOL Z79 SUDEN/N0445F380 Y710 ETAGO DCT SUNEG L608 ULNOK DCT ADENU DCT LIRSU DCT SPI DCT KOZUF DCT IMPOH DCT SASKI L608 SUMUM Y6 TOSVA |
| Aircraft | B738/M-SDE2E3FGHIRWXY/LB1 |
Departure
| Time | 2026-05-03 21:40 |
|---|---|
| Airport | Memmingen Allgau Airport (EDJA) |
Arrival
| Time | 2026-05-03 23:01 |
|---|---|
| Airport | London Stansted Airport (EGSS) |
| Time | Latitude | Longitude | Altitude | Speed | Heading |
|---|---|---|---|---|---|
| 2026-05-03 21:22 | 47.98759 | 10.22884 | 2074 ft | 0 kts | 54° |
| 2026-05-03 21:36 | 47.98761 | 10.22915 | 2074 ft | 6 kts | 121° |
| 2026-05-03 21:36 | 47.98700 | 10.22972 | 2074 ft | 14 kts | 149° |
| 2026-05-03 21:36 | 47.98588 | 10.23070 | 2074 ft | 22 kts | 149° |
| 2026-05-03 21:36 | 47.98577 | 10.23184 | 2074 ft | 17 kts | 58° |
| 2026-05-03 21:37 | 47.98663 | 10.23401 | 2072 ft | 31 kts | 59° |
| 2026-05-03 21:37 | 47.98798 | 10.23740 | 2068 ft | 44 kts | 59° |
| 2026-05-03 21:37 | 47.98968 | 10.24170 | 2064 ft | 48 kts | 59° |
| 2026-05-03 21:37 | 47.99142 | 10.24615 | 2061 ft | 49 kts | 60° |
| 2026-05-03 21:38 | 47.99321 | 10.25058 | 2058 ft | 49 kts | 59° |
| 2026-05-03 21:38 | 47.99443 | 10.25367 | 2055 ft | 13 kts | 59° |
| 2026-05-03 21:38 | 47.99469 | 10.25430 | 2055 ft | 2 kts | 283° |
| 2026-05-03 21:38 | 47.99467 | 10.25426 | 2055 ft | 0 kts | 239° |
| 2026-05-03 21:39 | 47.99466 | 10.25424 | 2055 ft | 0 kts | 239° |
| 2026-05-03 21:39 | 47.99459 | 10.25407 | 2055 ft | 7 kts | 239° |
| 2026-05-03 21:39 | 47.99334 | 10.25091 | 2058 ft | 70 kts | 239° |
| 2026-05-03 21:39 | 47.98978 | 10.24193 | 2064 ft | 130 kts | 239° |
| 2026-05-03 21:40 | 47.98445 | 10.22832 | 2239 ft | 162 kts | 240° |
| 2026-05-03 21:40 | 47.97905 | 10.21379 | 2860 ft | 166 kts | 245° |
| 2026-05-03 21:40 | 47.97348 | 10.19843 | 3484 ft | 169 kts | 244° |
| 2026-05-03 21:40 | 47.96744 | 10.18321 | 3933 ft | 182 kts | 243° |
| 2026-05-03 21:41 | 47.96070 | 10.16647 | 4439 ft | 193 kts | 242° |
| 2026-05-03 21:41 | 47.95348 | 10.14890 | 4898 ft | 207 kts | 240° |
| 2026-05-03 21:41 | 47.94560 | 10.12962 | 5324 ft | 225 kts | 241° |
| 2026-05-03 21:41 | 47.93721 | 10.10933 | 5829 ft | 238 kts | 243° |
| 2026-05-03 21:42 | 47.93208 | 10.08540 | 6303 ft | 251 kts | 270° |
| 2026-05-03 21:42 | 47.93621 | 10.05945 | 6788 ft | 265 kts | 298° |
| 2026-05-03 21:42 | 47.94782 | 10.03774 | 7377 ft | 276 kts | 314° |
| 2026-05-03 21:42 | 47.96169 | 10.01747 | 8026 ft | 285 kts | 314° |
| 2026-05-03 21:43 | 47.97662 | 9.99729 | 8753 ft | 293 kts | 321° |
| 2026-05-03 21:43 | 47.99446 | 9.98266 | 9459 ft | 303 kts | 340° |
| 2026-05-03 21:43 | 48.01506 | 9.97474 | 10147 ft | 311 kts | 347° |
| 2026-05-03 21:43 | 48.03653 | 9.96881 | 10763 ft | 322 kts | 348° |
| 2026-05-03 21:44 | 48.05909 | 9.96260 | 11311 ft | 335 kts | 347° |
| 2026-05-03 21:44 | 48.08235 | 9.95569 | 12100 ft | 341 kts | 346° |
| 2026-05-03 21:44 | 48.10543 | 9.94840 | 12994 ft | 344 kts | 346° |
| 2026-05-03 21:44 | 48.12893 | 9.94072 | 13867 ft | 346 kts | 345° |
| 2026-05-03 21:45 | 48.15250 | 9.93287 | 14785 ft | 348 kts | 345° |
| 2026-05-03 21:45 | 48.17618 | 9.92492 | 15671 ft | 351 kts | 345° |
| 2026-05-03 21:45 | 48.19930 | 9.91467 | 16501 ft | 352 kts | 335° |
| 2026-05-03 21:45 | 48.22035 | 9.89596 | 17367 ft | 349 kts | 317° |
| 2026-05-03 21:46 | 48.23617 | 9.86908 | 18195 ft | 347 kts | 302° |
| 2026-05-03 21:46 | 48.24915 | 9.83873 | 18892 ft | 352 kts | 300° |
| 2026-05-03 21:46 | 48.26200 | 9.80718 | 19626 ft | 357 kts | 299° |
| 2026-05-03 21:46 | 48.27506 | 9.77502 | 20364 ft | 360 kts | 299° |
| 2026-05-03 21:47 | 48.28807 | 9.74308 | 21000 ft | 365 kts | 299° |
| 2026-05-03 21:47 | 48.30154 | 9.71020 | 21642 ft | 370 kts | 299° |
| 2026-05-03 21:47 | 48.31495 | 9.67749 | 22276 ft | 374 kts | 299° |
| 2026-05-03 21:47 | 48.32868 | 9.64405 | 22911 ft | 378 kts | 299° |
| 2026-05-03 21:48 | 48.34247 | 9.61049 | 23478 ft | 383 kts | 299° |
| 2026-05-03 21:48 | 48.35658 | 9.57613 | 24120 ft | 385 kts | 299° |
| 2026-05-03 21:48 | 48.37053 | 9.54215 | 24692 ft | 389 kts | 299° |
| 2026-05-03 21:48 | 48.38487 | 9.50729 | 25295 ft | 392 kts | 299° |
| 2026-05-03 21:49 | 48.39972 | 9.47336 | 25905 ft | 395 kts | 303° |
| 2026-05-03 21:49 | 48.41698 | 9.44065 | 26487 ft | 399 kts | 308° |
| 2026-05-03 21:49 | 48.43592 | 9.40974 | 27001 ft | 404 kts | 311° |
| 2026-05-03 21:49 | 48.45574 | 9.37957 | 27448 ft | 410 kts | 313° |
| 2026-05-03 21:50 | 48.47596 | 9.34968 | 27934 ft | 413 kts | 312° |
| 2026-05-03 21:50 | 48.49675 | 9.31921 | 28448 ft | 416 kts | 312° |
| 2026-05-03 21:50 | 48.51763 | 9.28851 | 28938 ft | 419 kts | 312° |
| 2026-05-03 21:50 | 48.53851 | 9.25756 | 29410 ft | 422 kts | 311° |
| 2026-05-03 21:51 | 48.55956 | 9.22618 | 29861 ft | 426 kts | 311° |
| 2026-05-03 21:51 | 48.58060 | 9.19461 | 30335 ft | 428 kts | 311° |
| 2026-05-03 21:51 | 48.60165 | 9.16291 | 30800 ft | 431 kts | 311° |
| 2026-05-03 21:51 | 48.62290 | 9.13079 | 31276 ft | 433 kts | 311° |
| 2026-05-03 21:52 | 48.64405 | 9.09873 | 31676 ft | 437 kts | 311° |
| 2026-05-03 21:52 | 48.66598 | 9.06543 | 32122 ft | 440 kts | 311° |
| 2026-05-03 21:52 | 48.68809 | 9.03178 | 32586 ft | 442 kts | 311° |
| 2026-05-03 21:52 | 48.70989 | 8.99855 | 32938 ft | 447 kts | 311° |
| 2026-05-03 21:53 | 48.73200 | 8.96482 | 33339 ft | 450 kts | 311° |
| 2026-05-03 21:53 | 48.75411 | 8.93106 | 33726 ft | 452 kts | 311° |
| 2026-05-03 21:53 | 48.77626 | 8.89718 | 34147 ft | 454 kts | 311° |
| 2026-05-03 21:53 | 48.79858 | 8.86298 | 34451 ft | 458 kts | 311° |
| 2026-05-03 21:54 | 48.82096 | 8.82864 | 34748 ft | 461 kts | 311° |
| 2026-05-03 21:54 | 48.84351 | 8.79399 | 35266 ft | 456 kts | 311° |
| 2026-05-03 21:54 | 48.86565 | 8.76002 | 35951 ft | 448 kts | 311° |
| 2026-05-03 21:54 | 48.88749 | 8.72646 | 36395 ft | 445 kts | 311° |
| 2026-05-03 21:55 | 48.90902 | 8.69329 | 36775 ft | 444 kts | 311° |
| 2026-05-03 21:55 | 48.93075 | 8.65974 | 37187 ft | 444 kts | 311° |
| 2026-05-03 21:55 | 48.95283 | 8.62557 | 37593 ft | 444 kts | 311° |
| 2026-05-03 21:55 | 48.97469 | 8.59170 | 38000 ft | 443 kts | 311° |
| 2026-05-03 21:56 | 49.01790 | 8.52462 | 38014 ft | 443 kts | 311° |
| 2026-05-03 21:56 | 49.06105 | 8.45749 | 38014 ft | 442 kts | 311° |
| 2026-05-03 21:57 | 49.10381 | 8.39076 | 38011 ft | 442 kts | 310° |
| 2026-05-03 21:57 | 49.14681 | 8.32351 | 38012 ft | 443 kts | 310° |
| 2026-05-03 21:58 | 49.18920 | 8.25705 | 38007 ft | 442 kts | 310° |
| 2026-05-03 21:58 | 49.23103 | 8.19125 | 38012 ft | 443 kts | 310° |
| 2026-05-03 21:59 | 49.27416 | 8.12326 | 38009 ft | 443 kts | 310° |
| 2026-05-03 21:59 | 49.31684 | 8.05580 | 38009 ft | 442 kts | 310° |
| 2026-05-03 22:00 | 49.35983 | 7.98767 | 38007 ft | 443 kts | 310° |
| 2026-05-03 22:00 | 49.40231 | 7.92016 | 38006 ft | 441 kts | 310° |
| 2026-05-03 22:01 | 49.44498 | 7.85218 | 38006 ft | 443 kts | 310° |
| 2026-05-03 22:01 | 49.48737 | 7.78445 | 38004 ft | 442 kts | 310° |
| 2026-05-03 22:02 | 49.53001 | 7.71616 | 38007 ft | 442 kts | 310° |
| 2026-05-03 22:02 | 49.57271 | 7.64756 | 38007 ft | 442 kts | 310° |
| 2026-05-03 22:03 | 49.61575 | 7.57826 | 38016 ft | 442 kts | 310° |
| 2026-05-03 22:03 | 49.65813 | 7.50981 | 38009 ft | 442 kts | 310° |
| 2026-05-03 22:04 | 49.70058 | 7.44108 | 38015 ft | 442 kts | 310° |
| 2026-05-03 22:04 | 49.74334 | 7.37170 | 38019 ft | 441 kts | 310° |
| 2026-05-03 22:05 | 49.78562 | 7.30287 | 38012 ft | 441 kts | 309° |
| 2026-05-03 22:05 | 49.82766 | 7.23424 | 38007 ft | 440 kts | 309° |
| 2026-05-03 22:06 | 49.86995 | 7.16502 | 38004 ft | 440 kts | 309° |
| 2026-05-03 22:06 | 49.91247 | 7.09523 | 37994 ft | 441 kts | 309° |
| 2026-05-03 22:07 | 49.95440 | 7.02621 | 37998 ft | 441 kts | 309° |
| 2026-05-03 22:07 | 49.99663 | 6.95632 | 38009 ft | 442 kts | 308° |
| 2026-05-03 22:08 | 50.03453 | 6.88163 | 38000 ft | 436 kts | 300° |
| 2026-05-03 22:08 | 50.06556 | 6.80088 | 38000 ft | 435 kts | 295° |
| 2026-05-03 22:09 | 50.09450 | 6.71832 | 37992 ft | 434 kts | 294° |
| 2026-05-03 22:10 | 50.13768 | 6.59399 | 37994 ft | 434 kts | 295° |
| 2026-05-03 22:10 | 50.16633 | 6.51205 | 37985 ft | 434 kts | 295° |
| 2026-05-03 22:11 | 50.19556 | 6.42928 | 37977 ft | 435 kts | 296° |
| 2026-05-03 22:11 | 50.22673 | 6.34959 | 37989 ft | 437 kts | 298° |
| 2026-05-03 22:12 | 50.25872 | 6.27109 | 37957 ft | 437 kts | 298° |
| 2026-05-03 22:12 | 50.28038 | 6.21774 | 37969 ft | 439 kts | 298° |
| 2026-05-03 22:13 | 50.29358 | 6.18504 | 37975 ft | 439 kts | 298° |
| 2026-05-03 22:13 | 50.32610 | 6.10390 | 37961 ft | 438 kts | 297° |
| 2026-05-03 22:14 | 50.35819 | 6.02312 | 37966 ft | 437 kts | 297° |
| 2026-05-03 22:14 | 50.38997 | 5.94269 | 37957 ft | 438 kts | 297° |
| 2026-05-03 22:15 | 50.42196 | 5.86137 | 37961 ft | 439 kts | 297° |
| 2026-05-03 22:15 | 50.45403 | 5.77960 | 37962 ft | 437 kts | 297° |
| 2026-05-03 22:16 | 50.48583 | 5.69820 | 37954 ft | 438 kts | 297° |
| 2026-05-03 22:16 | 50.51762 | 5.61672 | 37959 ft | 438 kts | 298° |
| 2026-05-03 22:17 | 50.55132 | 5.53698 | 37963 ft | 441 kts | 300° |
| 2026-05-03 22:17 | 50.58680 | 5.45770 | 37968 ft | 441 kts | 301° |
| 2026-05-03 22:18 | 50.62215 | 5.37866 | 37965 ft | 442 kts | 301° |
| 2026-05-03 22:18 | 50.65748 | 5.29882 | 37956 ft | 441 kts | 300° |
| 2026-05-03 22:19 | 50.69235 | 5.21932 | 37938 ft | 442 kts | 300° |
| 2026-05-03 22:19 | 50.72733 | 5.13907 | 37952 ft | 442 kts | 300° |
| 2026-05-03 22:20 | 50.76206 | 5.05902 | 37949 ft | 442 kts | 300° |
| 2026-05-03 22:20 | 50.79681 | 4.97865 | 37945 ft | 443 kts | 300° |
| 2026-05-03 22:21 | 50.83157 | 4.89800 | 37942 ft | 444 kts | 300° |
| 2026-05-03 22:21 | 50.86620 | 4.81740 | 37929 ft | 443 kts | 300° |
| 2026-05-03 22:22 | 50.90071 | 4.73684 | 37921 ft | 444 kts | 300° |
| 2026-05-03 22:22 | 50.93523 | 4.65599 | 37927 ft | 444 kts | 300° |
| 2026-05-03 22:23 | 50.96987 | 4.57466 | 37923 ft | 444 kts | 300° |
| 2026-05-03 22:23 | 51.00470 | 4.49258 | 37924 ft | 444 kts | 300° |
| 2026-05-03 22:24 | 51.03930 | 4.41081 | 37930 ft | 446 kts | 300° |
| 2026-05-03 22:24 | 51.07375 | 4.32913 | 37923 ft | 445 kts | 299° |
| 2026-05-03 22:25 | 51.10720 | 4.24962 | 37927 ft | 444 kts | 298° |
| 2026-05-03 22:25 | 51.14137 | 4.16811 | 37923 ft | 444 kts | 299° |
| 2026-05-03 22:26 | 51.17559 | 4.08613 | 37917 ft | 445 kts | 299° |
| 2026-05-03 22:26 | 51.20972 | 4.00423 | 37926 ft | 444 kts | 299° |
| 2026-05-03 22:27 | 51.24388 | 3.92196 | 37915 ft | 445 kts | 299° |
| 2026-05-03 22:27 | 51.27801 | 3.83949 | 37905 ft | 446 kts | 299° |
| 2026-05-03 22:28 | 51.31204 | 3.75701 | 37918 ft | 445 kts | 299° |
| 2026-05-03 22:28 | 51.34428 | 3.67241 | 37917 ft | 442 kts | 293° |
| 2026-05-03 22:29 | 51.36712 | 3.58204 | 37912 ft | 437 kts | 284° |
| 2026-05-03 22:29 | 51.38412 | 3.48900 | 37915 ft | 437 kts | 282° |
| 2026-05-03 22:30 | 51.39991 | 3.39525 | 37907 ft | 436 kts | 281° |
| 2026-05-03 22:30 | 51.41562 | 3.30207 | 37915 ft | 436 kts | 281° |
| 2026-05-03 22:31 | 51.43160 | 3.20832 | 37915 ft | 436 kts | 281° |
| 2026-05-03 22:31 | 51.44767 | 3.11451 | 37919 ft | 437 kts | 281° |
| 2026-05-03 22:32 | 51.46346 | 3.02077 | 37887 ft | 436 kts | 281° |
| 2026-05-03 22:32 | 51.47109 | 2.97465 | 37530 ft | 430 kts | 281° |
| 2026-05-03 22:32 | 51.47862 | 2.92887 | 36527 ft | 429 kts | 280° |
| 2026-05-03 22:32 | 51.48614 | 2.88300 | 35578 ft | 429 kts | 280° |
| 2026-05-03 22:33 | 51.49361 | 2.83718 | 34735 ft | 430 kts | 279° |
| 2026-05-03 22:33 | 51.50117 | 2.79071 | 33664 ft | 429 kts | 279° |
| 2026-05-03 22:33 | 51.50859 | 2.74505 | 32437 ft | 431 kts | 279° |
| 2026-05-03 22:33 | 51.51611 | 2.69864 | 31144 ft | 432 kts | 279° |
| 2026-05-03 22:34 | 51.52354 | 2.65271 | 30094 ft | 424 kts | 279° |
| 2026-05-03 22:34 | 51.53081 | 2.60817 | 29638 ft | 404 kts | 279° |
| 2026-05-03 22:34 | 51.53777 | 2.56545 | 29139 ft | 402 kts | 279° |
| 2026-05-03 22:34 | 51.54487 | 2.52104 | 28568 ft | 413 kts | 279° |
| 2026-05-03 22:35 | 51.55263 | 2.47687 | 27947 ft | 413 kts | 283° |
| 2026-05-03 22:35 | 51.56168 | 2.43378 | 27335 ft | 400 kts | 285° |
| 2026-05-03 22:35 | 51.57127 | 2.39213 | 26758 ft | 394 kts | 286° |
| 2026-05-03 22:35 | 51.58105 | 2.35056 | 26172 ft | 405 kts | 287° |
| 2026-05-03 22:36 | 51.59061 | 2.30994 | 25577 ft | 401 kts | 286° |
| 2026-05-03 22:36 | 51.60028 | 2.26888 | 24971 ft | 387 kts | 286° |
| 2026-05-03 22:36 | 51.60960 | 2.22903 | 24420 ft | 386 kts | 286° |
| 2026-05-03 22:36 | 51.61606 | 2.20153 | 24036 ft | 395 kts | 288° |
| 2026-05-03 22:37 | 51.62756 | 2.16190 | 23419 ft | 396 kts | 295° |
| 2026-05-03 22:37 | 51.64308 | 2.12586 | 22817 ft | 386 kts | 307° |
| 2026-05-03 22:37 | 51.66218 | 2.09536 | 22298 ft | 388 kts | 315° |
| 2026-05-03 22:37 | 51.68357 | 2.06884 | 21905 ft | 396 kts | 322° |
| 2026-05-03 22:38 | 51.70715 | 2.04539 | 21901 ft | 397 kts | 327° |
| 2026-05-03 22:38 | 51.73153 | 2.02396 | 21709 ft | 403 kts | 329° |
| 2026-05-03 22:38 | 51.75633 | 2.00329 | 21218 ft | 400 kts | 330° |
| 2026-05-03 22:38 | 51.78092 | 1.98315 | 20654 ft | 396 kts | 330° |
| 2026-05-03 22:39 | 51.80501 | 1.96294 | 20141 ft | 389 kts | 326° |
| 2026-05-03 22:39 | 51.82570 | 1.93607 | 19878 ft | 378 kts | 308° |
| 2026-05-03 22:39 | 51.83944 | 1.90076 | 19625 ft | 374 kts | 289° |
| 2026-05-03 22:39 | 51.84652 | 1.86084 | 19380 ft | 370 kts | 279° |
| 2026-05-03 22:40 | 51.85106 | 1.82027 | 19120 ft | 367 kts | 277° |
| 2026-05-03 22:40 | 51.85517 | 1.77934 | 18857 ft | 366 kts | 277° |
| 2026-05-03 22:40 | 51.85942 | 1.73875 | 18601 ft | 366 kts | 277° |
| 2026-05-03 22:40 | 51.86402 | 1.69857 | 18347 ft | 364 kts | 279° |
| 2026-05-03 22:41 | 51.86906 | 1.65889 | 18098 ft | 363 kts | 280° |
| 2026-05-03 22:41 | 51.87450 | 1.61896 | 17911 ft | 362 kts | 281° |
| 2026-05-03 22:41 | 51.88009 | 1.57966 | 17891 ft | 362 kts | 281° |
| 2026-05-03 22:41 | 51.88581 | 1.54005 | 17649 ft | 364 kts | 281° |
| 2026-05-03 22:42 | 51.89154 | 1.50035 | 17395 ft | 360 kts | 281° |
| 2026-05-03 22:42 | 51.89718 | 1.46113 | 17143 ft | 358 kts | 281° |
| 2026-05-03 22:42 | 51.90279 | 1.42198 | 16896 ft | 358 kts | 281° |
| 2026-05-03 22:42 | 51.90834 | 1.38293 | 16643 ft | 357 kts | 281° |
| 2026-05-03 22:43 | 51.91383 | 1.34413 | 16364 ft | 351 kts | 280° |
| 2026-05-03 22:43 | 51.91919 | 1.30618 | 15953 ft | 344 kts | 280° |
| 2026-05-03 22:43 | 51.92450 | 1.26849 | 15448 ft | 347 kts | 280° |
| 2026-05-03 22:43 | 51.92985 | 1.23019 | 14885 ft | 348 kts | 280° |
| 2026-05-03 22:44 | 51.93518 | 1.19208 | 14330 ft | 344 kts | 280° |
| 2026-05-03 22:44 | 51.94041 | 1.15463 | 13782 ft | 340 kts | 280° |
| 2026-05-03 22:44 | 51.94556 | 1.11757 | 13232 ft | 337 kts | 280° |
| 2026-05-03 22:44 | 51.95064 | 1.08087 | 12687 ft | 334 kts | 281° |
| 2026-05-03 22:45 | 51.95564 | 1.04454 | 12139 ft | 331 kts | 281° |
| 2026-05-03 22:45 | 51.96057 | 1.00856 | 11611 ft | 328 kts | 281° |
| 2026-05-03 22:45 | 51.96554 | 0.97237 | 11068 ft | 326 kts | 281° |
| 2026-05-03 22:45 | 51.97039 | 0.93705 | 10579 ft | 322 kts | 281° |
| 2026-05-03 22:46 | 51.97516 | 0.90239 | 10296 ft | 312 kts | 281° |
| 2026-05-03 22:46 | 51.97978 | 0.86875 | 10167 ft | 298 kts | 281° |
| 2026-05-03 22:46 | 51.98420 | 0.83644 | 10001 ft | 287 kts | 281° |
| 2026-05-03 22:46 | 51.98842 | 0.80546 | 9668 ft | 283 kts | 281° |
| 2026-05-03 22:47 | 51.99260 | 0.77450 | 9266 ft | 282 kts | 281° |
| 2026-05-03 22:47 | 51.99681 | 0.74330 | 8929 ft | 279 kts | 281° |
| 2026-05-03 22:47 | 52.00090 | 0.71310 | 8908 ft | 276 kts | 281° |
| 2026-05-03 22:47 | 52.00501 | 0.68261 | 8897 ft | 280 kts | 281° |
| 2026-05-03 22:48 | 52.00920 | 0.65147 | 8659 ft | 280 kts | 281° |
| 2026-05-03 22:48 | 52.01332 | 0.62085 | 8406 ft | 276 kts | 281° |
| 2026-05-03 22:48 | 52.01741 | 0.59044 | 8118 ft | 277 kts | 281° |
| 2026-05-03 22:48 | 52.02045 | 0.55990 | 7788 ft | 274 kts | 275° |
| 2026-05-03 22:49 | 52.02174 | 0.52965 | 7520 ft | 268 kts | 272° |
| 2026-05-03 22:49 | 52.02257 | 0.49973 | 7262 ft | 262 kts | 272° |
| 2026-05-03 22:49 | 52.02330 | 0.47041 | 7002 ft | 257 kts | 271° |
| 2026-05-03 22:49 | 52.02398 | 0.44202 | 6754 ft | 252 kts | 271° |
| 2026-05-03 22:50 | 52.02462 | 0.41373 | 6502 ft | 247 kts | 272° |
| 2026-05-03 22:50 | 52.02521 | 0.38632 | 6249 ft | 243 kts | 272° |
| 2026-05-03 22:50 | 52.02576 | 0.35892 | 6008 ft | 239 kts | 271° |
| 2026-05-03 22:50 | 52.02624 | 0.33222 | 5953 ft | 240 kts | 269° |
| 2026-05-03 22:51 | 52.02288 | 0.30413 | 5951 ft | 263 kts | 245° |
| 2026-05-03 22:51 | 52.01258 | 0.27975 | 5971 ft | 267 kts | 229° |
| 2026-05-03 22:51 | 51.99985 | 0.25752 | 5954 ft | 266 kts | 226° |
| 2026-05-03 22:51 | 51.98706 | 0.23606 | 5959 ft | 267 kts | 226° |
| 2026-05-03 22:52 | 51.97407 | 0.21434 | 5965 ft | 266 kts | 226° |
| 2026-05-03 22:52 | 51.96130 | 0.19295 | 5958 ft | 265 kts | 226° |
| 2026-05-03 22:52 | 51.94840 | 0.17134 | 5889 ft | 268 kts | 226° |
| 2026-05-03 22:52 | 51.93551 | 0.14981 | 5615 ft | 266 kts | 226° |
| 2026-05-03 22:53 | 51.92251 | 0.12820 | 5233 ft | 265 kts | 226° |
| 2026-05-03 22:53 | 51.90981 | 0.10721 | 4866 ft | 264 kts | 226° |
| 2026-05-03 22:53 | 51.89688 | 0.08593 | 4487 ft | 263 kts | 226° |
| 2026-05-03 22:53 | 51.88411 | 0.06499 | 4113 ft | 262 kts | 226° |
| 2026-05-03 22:54 | 51.87147 | 0.04427 | 3715 ft | 258 kts | 226° |
| 2026-05-03 22:54 | 51.85903 | 0.02391 | 3352 ft | 246 kts | 226° |
| 2026-05-03 22:54 | 51.84728 | 0.00466 | 2971 ft | 236 kts | 226° |
| 2026-05-03 22:54 | 51.83590 | -0.01386 | 2591 ft | 229 kts | 226° |
| 2026-05-03 22:55 | 51.82500 | -0.03156 | 2458 ft | 213 kts | 226° |
| 2026-05-03 22:55 | 51.81432 | -0.04682 | 2475 ft | 203 kts | 210° |
| 2026-05-03 22:55 | 51.80074 | -0.05216 | 2479 ft | 204 kts | 174° |
| 2026-05-03 22:55 | 51.78777 | -0.04377 | 2486 ft | 204 kts | 139° |
| 2026-05-03 22:56 | 51.77787 | -0.02757 | 2473 ft | 202 kts | 131° |
| 2026-05-03 22:56 | 51.76969 | -0.00939 | 2473 ft | 201 kts | 110° |
| 2026-05-03 22:56 | 51.76837 | 0.01265 | 2488 ft | 197 kts | 77° |
| 2026-05-03 22:56 | 51.77221 | 0.03386 | 2477 ft | 197 kts | 70° |
| 2026-05-03 22:57 | 51.77638 | 0.05469 | 2473 ft | 193 kts | 71° |
| 2026-05-03 22:57 | 51.78092 | 0.07465 | 2476 ft | 185 kts | 61° |
| 2026-05-03 22:57 | 51.78846 | 0.09057 | 2479 ft | 170 kts | 42° |
| 2026-05-03 22:57 | 51.79667 | 0.10288 | 2473 ft | 153 kts | 41° |
| 2026-05-03 22:58 | 51.80427 | 0.11441 | 2408 ft | 154 kts | 41° |
| 2026-05-03 22:58 | 51.81216 | 0.12619 | 2098 ft | 149 kts | 41° |
| 2026-05-03 22:58 | 51.81961 | 0.13726 | 1910 ft | 145 kts | 41° |
| 2026-05-03 22:58 | 51.82709 | 0.14840 | 1712 ft | 146 kts | 41° |
| 2026-05-03 22:59 | 51.83449 | 0.15944 | 1515 ft | 145 kts | 41° |
| 2026-05-03 22:59 | 51.84190 | 0.17047 | 1317 ft | 144 kts | 41° |
| 2026-05-03 22:59 | 51.84929 | 0.18149 | 1134 ft | 146 kts | 41° |
| 2026-05-03 22:59 | 51.85669 | 0.19250 | 904 ft | 144 kts | 41° |
| 2026-05-03 23:00 | 51.86404 | 0.20347 | 736 ft | 144 kts | 42° |
| 2026-05-03 23:00 | 51.87140 | 0.21456 | 532 ft | 140 kts | 42° |
| 2026-05-03 23:00 | 51.87853 | 0.22510 | 344 ft | 136 kts | 42° |
| 2026-05-03 23:00 | 51.88419 | 0.23359 | 342 ft | 86 kts | 43° |
| 2026-05-03 23:01 | 51.88814 | 0.23952 | 338 ft | 78 kts | 43° |
| 2026-05-03 23:01 | 51.89072 | 0.24415 | 338 ft | 43 kts | 64° |
| 2026-05-03 23:01 | 51.89158 | 0.24755 | 340 ft | 16 kts | 68° |
| 2026-05-03 23:01 | 51.89164 | 0.24869 | 340 ft | 6 kts | 131° |
| 2026-05-03 23:02 | 51.89149 | 0.24923 | 340 ft | 6 kts | 68° |
| 2026-05-03 23:02 | 51.89176 | 0.24972 | 340 ft | 5 kts | 43° |
| 2026-05-03 23:02 | 51.89199 | 0.25008 | 341 ft | 3 kts | 47° |